Time;durP1;ratioP1;P1;durP2;ratioP2;P2;SDS_P1;SDS_P2;PMS_P1;PMS_P2;Temp;Humidity;BMP_temperature;BMP_pressure;BME280_temperature;BME280_humidity;BME280_pressure;Samples;Min_cycle;Max_cycle;Signal;HPM_P1;HPM_P2
2021/03/06 00:00:18;;;;;;;16.73;7.10;;;1.60;71.70;;;;;;5096576;28;20020;-80
2021/03/06 00:02:43;;;;;;;23.43;7.47;;;1.50;72.00;;;;;;5095915;28;20441;-80
2021/03/06 00:05:09;;;;;;;23.73;7.20;;;1.40;72.30;;;;;;5096483;28;20047;-80
2021/03/06 00:07:35;;;;;;;18.63;7.53;;;1.50;72.70;;;;;;5095346;28;20434;-80
2021/03/06 00:10:02;;;;;;;16.70;7.13;;;1.50;72.70;;;;;;5096728;28;20027;-80
2021/03/06 00:12:27;;;;;;;12.80;6.67;;;1.50;72.60;;;;;;5096380;28;20102;-80
2021/03/06 00:14:53;;;;;;;18.87;6.63;;;1.50;72.80;;;;;;5096366;28;20140;-80
2021/03/06 00:17:19;;;;;;;12.93;6.47;;;1.50;72.70;;;;;;5096280;28;20028;-80
2021/03/06 00:19:44;;;;;;;14.93;6.50;;;1.60;72.60;;;;;;5096375;28;20027;-80
2021/03/06 00:22:10;;;;;;;24.83;7.50;;;1.60;72.70;;;;;;5094938;28;20024;-80
2021/03/06 00:24:35;;;;;;;16.47;7.07;;;1.50;72.60;;;;;;5095745;28;20118;-80
2021/03/06 00:27:01;;;;;;;16.73;6.40;;;1.60;72.60;;;;;;5095821;28;20081;-79
2021/03/06 00:29:26;;;;;;;14.03;6.50;;;1.60;72.70;;;;;;5096455;28;20115;-80
2021/03/06 00:31:52;;;;;;;13.13;6.07;;;1.60;72.90;;;;;;5095731;28;20028;-80
2021/03/06 00:34:17;;;;;;;12.93;5.90;;;1.60;73.50;;;;;;5094830;28;20032;-79
2021/03/06 00:36:43;;;;;;;16.47;6.13;;;1.60;73.60;;;;;;5096198;28;20059;-79
2021/03/06 00:39:09;;;;;;;13.90;6.17;;;1.60;73.30;;;;;;5095942;28;20465;-80
2021/03/06 00:41:34;;;;;;;15.07;6.30;;;1.60;73.30;;;;;;5095833;28;20078;-80
2021/03/06 00:44:00;;;;;;;25.37;7.13;;;1.60;73.30;;;;;;5094854;28;20466;-80
2021/03/06 00:46:26;;;;;;;15.60;6.43;;;1.60;73.10;;;;;;5095739;28;20035;-80
2021/03/06 00:48:51;;;;;;;18.63;6.23;;;1.70;73.20;;;;;;5095016;28;20116;-80
2021/03/06 00:51:17;;;;;;;14.60;5.83;;;1.60;73.30;;;;;;5094746;28;20038;-81
2021/03/06 00:53:43;;;;;;;21.10;6.57;;;1.60;73.40;;;;;;5095290;28;20043;-80
2021/03/06 00:56:08;;;;;;;20.47;7.13;;;1.50;73.70;;;;;;5094487;28;20416;-80
2021/03/06 00:58:34;;;;;;;15.50;6.93;;;1.50;73.90;;;;;;5094014;28;20021;-80
2021/03/06 01:01:00;;;;;;;18.07;7.57;;;1.50;74.00;;;;;;5095468;28;20543;-80
2021/03/06 01:03:25;;;;;;;18.27;6.70;;;1.50;74.20;;;;;;5099272;28;20056;-80
2021/03/06 01:05:51;;;;;;;18.93;6.53;;;1.40;74.70;;;;;;5095153;28;20062;-80
2021/03/06 01:08:17;;;;;;;17.27;6.37;;;1.40;74.80;;;;;;5095000;28;20021;-80
2021/03/06 01:10:43;;;;;;;24.40;6.87;;;1.40;74.70;;;;;;5094019;28;20058;-80
2021/03/06 01:13:09;;;;;;;16.80;6.17;;;1.40;74.70;;;;;;5077165;28;20079;-80
2021/03/06 01:15:35;;;;;;;15.07;5.60;;;1.40;75.10;;;;;;5094294;28;20481;-81
2021/03/06 01:18:02;;;;;;;15.53;5.77;;;1.50;75.00;;;;;;5094964;28;20063;-80
2021/03/06 01:20:28;;;;;;;17.17;5.77;;;1.50;74.70;;;;;;5094595;28;20024;-81
2021/03/06 01:22:53;;;;;;;19.53;5.43;;;1.40;74.80;;;;;;5093663;28;20028;-80
2021/03/06 01:25:19;;;;;;;15.47;6.10;;;1.40;75.10;;;;;;5093465;28;20123;-80
2021/03/06 01:27:44;;;;;;;19.03;6.00;;;1.50;74.90;;;;;;5093475;28;20024;-80
2021/03/06 01:30:10;;;;;;;13.63;6.07;;;1.60;74.40;;;;;;5094914;28;20039;-80
2021/03/06 01:32:36;;;;;;;15.13;6.27;;;1.60;74.30;;;;;;5094834;28;20056;-81
2021/03/06 01:35:04;;;;;;;18.77;6.50;;;1.50;74.40;;;;;;5094570;28;20036;-80
2021/03/06 01:37:29;;;;;;;15.87;6.00;;;1.50;74.60;;;;;;5094670;28;20500;-80
2021/03/06 01:39:55;;;;;;;20.27;6.67;;;1.50;74.60;;;;;;5094771;28;20052;-80
2021/03/06 01:42:21;;;;;;;22.70;6.37;;;1.40;75.30;;;;;;5094947;28;20039;-80
2021/03/06 01:44:47;;;;;;;20.33;6.10;;;1.40;76.00;;;;;;5094568;28;20107;-80
2021/03/06 01:47:12;;;;;;;15.73;5.87;;;1.50;75.50;;;;;;5094606;28;20433;-80
2021/03/06 01:49:38;;;;;;;22.00;7.13;;;1.50;74.70;;;;;;5093054;28;20047;-80
2021/03/06 01:52:04;;;;;;;16.83;6.90;;;1.60;74.40;;;;;;5076400;28;20397;-80
2021/03/06 01:54:29;;;;;;;23.17;7.47;;;1.60;73.50;;;;;;5094173;28;20053;-80
2021/03/06 01:56:55;;;;;;;15.47;6.67;;;1.60;73.40;;;;;;5093141;28;20417;-80
2021/03/06 01:59:21;;;;;;;18.07;7.50;;;1.60;73.60;;;;;;5093188;28;20024;-80
2021/03/06 02:01:46;;;;;;;22.30;7.33;;;1.60;73.50;;;;;;5094247;28;20024;-80
2021/03/06 02:04:12;;;;;;;19.60;7.10;;;1.60;73.30;;;;;;5093118;28;20055;-80
2021/03/06 02:06:38;;;;;;;15.13;7.20;;;1.40;73.80;;;;;;5076378;28;20027;-80
2021/03/06 02:09:04;;;;;;;17.40;6.63;;;1.50;74.00;;;;;;5092724;28;20029;-80
2021/03/06 02:11:54;;;;;;;17.87;6.93;;;1.40;74.10;;;;;;5094401;28;20055;-80
2021/03/06 02:14:32;;;;;;;22.27;6.67;;;1.50;74.00;;;;;;5093185;28;20024;-80
2021/03/06 02:17:11;;;;;;;17.47;6.17;;;1.40;74.10;;;;;;5093084;28;20012;-80
2021/03/06 02:19:46;;;;;;;14.97;6.43;;;1.30;74.40;;;;;;5093060;28;20122;-80
2021/03/06 02:22:38;;;;;;;20.97;6.70;;;1.20;75.10;;;;;;5094035;28;20120;-80
2021/03/06 02:25:28;;;;;;;14.20;5.87;;;1.20;74.70;;;;;;5092647;28;20457;-80
2021/03/06 02:28:03;;;;;;;20.40;6.93;;;1.20;74.70;;;;;;5092933;28;20393;-80
2021/03/06 02:30:30;;;;;;;19.20;5.97;;;1.10;75.10;;;;;;5092918;28;20111;-80
2021/03/06 02:32:55;;;;;;;22.97;6.50;;;1.00;75.50;;;;;;5092457;28;20469;-80
2021/03/06 02:35:22;;;;;;;21.40;6.43;;;1.00;75.50;;;;;;5075616;28;20037;-80
2021/03/06 02:38:02;;;;;;;15.00;6.00;;;1.00;76.10;;;;;;5075675;28;20032;-81
2021/03/06 02:40:28;;;;;;;18.98;6.07;;;1.00;75.60;;;;;;5092508;28;20021;-81
2021/03/06 02:42:55;;;;;;;19.70;6.67;;;1.10;75.70;;;;;;5076075;28;20035;-81
2021/03/06 02:45:20;;;;;;;13.10;5.13;;;1.00;75.40;;;;;;5059325;28;20032;-81
2021/03/06 02:47:47;;;;;;;16.43;4.90;;;0.80;75.40;;;;;;5093756;28;20029;-80
2021/03/06 02:50:13;;;;;;;12.70;4.90;;;0.50;76.50;;;;;;5094278;28;20469;-80
2021/03/06 02:52:38;;;;;;;18.93;6.00;;;0.50;77.60;;;;;;5092291;28;20024;-80
2021/03/06 02:55:06;;;;;;;21.57;5.97;;;0.50;77.40;;;;;;5093453;28;20051;-81
2021/03/06 02:57:36;;;;;;;13.47;5.40;;;0.50;78.00;;;;;;5093629;28;20073;-81
2021/03/06 03:00:19;;;;;;;14.20;5.57;;;0.70;78.40;;;;;;5092746;28;20127;-81
2021/03/06 03:03:04;;;;;;;19.77;5.93;;;0.80;77.20;;;;;;5093809;28;20020;-81
2021/03/06 03:05:38;;;;;;;18.77;5.93;;;0.90;76.00;;;;;;5092419;28;20036;-81
2021/03/06 03:08:20;;;;;;;19.53;5.57;;;0.90;75.30;;;;;;5092574;28;20024;-81
2021/03/06 03:10:50;;;;;;;13.33;5.37;;;0.80;75.00;;;;;;5092822;28;20023;-81
2021/03/06 03:13:23;;;;;;;16.70;5.73;;;0.80;75.20;;;;;;5077373;28;20024;-81
2021/03/06 03:16:16;;;;;;;14.27;5.60;;;0.80;75.70;;;;;;5096228;28;20615;-81
2021/03/06 03:18:48;;;;;;;16.57;6.10;;;0.80;76.00;;;;;;5097217;28;20169;-81
2021/03/06 03:21:16;;;;;;;19.50;5.70;;;0.80;75.90;;;;;;5096091;28;20030;-82
2021/03/06 03:23:43;;;;;;;17.33;6.73;;;0.80;75.80;;;;;;5097661;28;20036;-82
2021/03/06 03:26:15;;;;;;;19.63;7.07;;;0.80;75.70;;;;;;5079487;28;20021;-82
2021/03/06 03:28:42;;;;;;;19.80;7.90;;;0.80;75.70;;;;;;5079411;28;20020;-82
2021/03/06 03:31:08;;;;;;;22.20;7.10;;;0.80;75.80;;;;;;5096159;28;20016;-82
2021/03/06 03:33:33;;;;;;;13.83;5.53;;;0.80;76.10;;;;;;5079280;28;20042;-82
2021/03/06 03:36:01;;;;;;;19.20;6.53;;;0.80;75.90;;;;;;5096396;28;20024;-82
2021/03/06 03:38:26;;;;;;;15.43;6.23;;;0.70;76.20;;;;;;5095864;28;20044;-82
2021/03/06 03:40:52;;;;;;;23.00;6.03;;;0.50;77.80;;;;;;5079011;28;20055;-82
2021/03/06 03:43:17;;;;;;;12.83;5.73;;;0.30;79.90;;;;;;5095739;28;20028;-82
2021/03/06 03:45:43;;;;;;;21.67;6.33;;;0.40;79.90;;;;;;5078660;28;20032;-82
2021/03/06 03:48:10;;;;;;;13.60;6.57;;;0.50;78.60;;;;;;5097041;28;20050;-82
2021/03/06 03:50:35;;;;;;;14.83;7.00;;;0.50;78.20;;;;;;5079038;28;20039;-82
2021/03/06 03:53:01;;;;;;;22.57;7.67;;;0.50;78.50;;;;;;5095756;28;20119;-82
2021/03/06 03:55:26;;;;;;;14.73;5.80;;;0.60;78.00;;;;;;5097014;28;20057;-82
2021/03/06 03:57:52;;;;;;;17.73;5.67;;;0.50;78.10;;;;;;5095277;28;20024;-83
2021/03/06 04:00:19;;;;;;;15.90;5.73;;;0.30;78.00;;;;;;5078623;28;20039;-82
2021/03/06 04:02:46;;;;;;;17.60;5.97;;;0.20;79.10;;;;;;5096547;28;20376;-83
2021/03/06 04:05:11;;;;;;;14.70;5.93;;;0.10;79.50;;;;;;5096538;28;20028;-83
2021/03/06 04:07:41;;;;;;;14.30;6.53;;;0.00;80.20;;;;;;5096591;28;20050;-83
2021/03/06 04:10:07;;;;;;;22.37;5.90;;;0.00;80.10;;;;;;5096519;28;20030;-83
2021/03/06 04:12:33;;;;;;;17.13;6.90;;;0.20;79.80;;;;;;5096682;28;20097;-83
2021/03/06 04:14:58;;;;;;;21.87;5.80;;;0.30;78.50;;;;;;5096363;28;20024;-83
2021/03/06 04:17:24;;;;;;;19.43;6.33;;;0.40;77.40;;;;;;5096082;28;20534;-83
2021/03/06 04:19:49;;;;;;;17.50;5.50;;;0.10;77.80;;;;;;5094957;28;20032;-83
2021/03/06 04:22:15;;;;;;;14.57;5.43;;;-0.20;78.80;;;;;;5096689;28;20038;-83
2021/03/06 04:24:41;;;;;;;11.03;4.87;;;-0.40;80.20;;;;;;5096092;28;20032;-83
2021/03/06 04:27:06;;;;;;;11.90;5.00;;;-0.60;80.90;;;;;;5095847;28;20032;-83
2021/03/06 04:29:32;;;;;;;16.73;5.30;;;-0.70;81.00;;;;;;5094834;28;20024;-84
2021/03/06 04:31:57;;;;;;;13.37;5.47;;;-0.50;81.50;;;;;;5099342;28;20021;-83
2021/03/06 04:34:23;;;;;;;24.10;5.87;;;-0.30;80.50;;;;;;5096061;28;20035;-84
2021/03/06 04:36:49;;;;;;;14.13;5.93;;;-0.20;79.50;;;;;;5096022;28;20028;-84
2021/03/06 04:39:14;;;;;;;13.53;5.70;;;-0.50;80.00;;;;;;5095908;28;20027;-84
2021/03/06 04:41:40;;;;;;;14.73;5.07;;;-0.60;81.60;;;;;;5095878;28;20028;-84
2021/03/06 04:44:06;;;;;;;18.33;5.93;;;-0.70;82.00;;;;;;5077792;28;20032;-84
2021/03/06 04:46:32;;;;;;;25.60;6.97;;;-0.80;82.40;;;;;;5095979;28;20032;-84
2021/03/06 04:48:57;;;;;;;22.30;7.27;;;-0.50;82.30;;;;;;5095582;28;20129;-84
2021/03/06 04:51:23;;;;;;;17.53;5.80;;;-0.30;80.80;;;;;;5095845;28;20415;-84
2021/03/06 04:53:48;;;;;;;17.30;6.60;;;-0.20;79.80;;;;;;5095521;28;20028;-84
2021/03/06 04:56:14;;;;;;;20.47;6.53;;;-0.20;79.20;;;;;;5094647;28;20034;-84
2021/03/06 04:58:40;;;;;;;17.07;6.73;;;-0.10;78.70;;;;;;5094475;28;20534;-84
2021/03/06 05:01:05;;;;;;;15.10;6.70;;;-0.10;78.60;;;;;;5095773;28;20026;-84
2021/03/06 05:03:31;;;;;;;25.83;6.20;;;-0.10;78.30;;;;;;5095878;28;20508;-84
2021/03/06 05:05:56;;;;;;;15.13;5.40;;;-0.40;79.80;;;;;;5095738;28;20469;-85
2021/03/06 05:08:22;;;;;;;14.60;6.20;;;-0.80;81.30;;;;;;5095383;28;20098;-84
2021/03/06 05:10:47;;;;;;;17.60;5.87;;;-1.00;82.30;;;;;;5094975;28;20028;-85
2021/03/06 05:13:13;;;;;;;20.43;6.13;;;-1.20;83.40;;;;;;5095264;28;20032;-84
2021/03/06 05:15:39;;;;;;;15.20;5.23;;;-1.20;83.90;;;;;;5095280;28;20028;-84
2021/03/06 05:18:04;;;;;;;17.83;6.40;;;-1.10;83.40;;;;;;5095218;28;20028;-85
2021/03/06 05:20:30;;;;;;;17.03;6.90;;;-0.80;82.60;;;;;;5094724;28;20165;-79
2021/03/06 05:22:56;;;;;;;20.10;6.67;;;-0.60;81.30;;;;;;5095086;28;20384;-79
2021/03/06 05:25:21;;;;;;;17.93;7.50;;;-0.50;80.30;;;;;;5095009;28;20063;-80
2021/03/06 05:27:54;;;;;;;15.60;6.87;;;-0.30;79.80;;;;;;5095307;28;20027;-79
2021/03/06 05:30:20;;;;;;;22.00;6.40;;;-0.30;79.30;;;;;;5095245;28;20154;-79
2021/03/06 05:32:46;;;;;;;14.33;6.73;;;-0.60;80.00;;;;;;5094942;28;20024;-79
2021/03/06 05:35:12;;;;;;;16.13;7.03;;;-0.60;80.60;;;;;;5094578;28;20377;-79
2021/03/06 05:37:37;;;;;;;12.53;6.50;;;-0.50;80.10;;;;;;5094702;28;20028;-80
2021/03/06 05:40:03;;;;;;;14.80;5.93;;;-0.40;79.70;;;;;;5094825;28;20147;-80
2021/03/06 05:42:29;;;;;;;14.77;6.23;;;-0.70;80.00;;;;;;5093457;28;20030;-80
2021/03/06 05:44:56;;;;;;;17.97;8.20;;;-0.60;80.20;;;;;;5094623;28;20036;-80
2021/03/06 05:47:22;;;;;;;20.77;7.90;;;-0.50;80.20;;;;;;5093473;28;20055;-80
2021/03/06 05:49:47;;;;;;;16.77;8.67;;;-0.40;79.70;;;;;;5093182;28;20062;-79
2021/03/06 05:52:17;;;;;;;17.20;7.37;;;-0.30;79.20;;;;;;5094852;28;20376;-80
2021/03/06 05:54:42;;;;;;;19.30;8.67;;;-0.30;78.50;;;;;;5094979;28;20381;-80
2021/03/06 05:57:08;;;;;;;19.90;11.87;;;-0.30;78.50;;;;;;5076252;28;20032;-80
2021/03/06 05:59:33;;;;;;;22.70;7.60;;;-0.40;79.20;;;;;;5076475;28;20469;-80
2021/03/06 06:01:59;;;;;;;16.50;7.37;;;-0.50;79.30;;;;;;5076122;28;20031;-80
2021/03/06 06:04:28;;;;;;;20.63;7.47;;;-0.60;79.70;;;;;;5093112;28;20060;-78
2021/03/06 06:06:53;;;;;;;17.10;6.50;;;-0.60;79.20;;;;;;5093200;28;20035;-80
2021/03/06 06:09:19;;;;;;;13.13;7.23;;;-0.60;79.40;;;;;;5093201;28;20354;-80
2021/03/06 06:11:44;;;;;;;21.27;7.93;;;-0.60;79.40;;;;;;5094280;28;20105;-79
2021/03/06 06:14:10;;;;;;;21.97;7.30;;;-0.70;79.70;;;;;;5094617;28;20024;-78
2021/03/06 06:16:36;;;;;;;22.03;8.37;;;-0.70;79.80;;;;;;5096164;28;20031;-78
2021/03/06 06:19:05;;;;;;;19.73;8.90;;;-0.70;79.90;;;;;;5094003;28;20039;-78
2021/03/06 06:21:38;;;;;;;21.83;8.90;;;-0.50;79.70;;;;;;5093770;28;20020;-78
2021/03/06 06:24:04;;;;;;;16.87;8.37;;;-0.40;79.20;;;;;;5093972;28;20028;-79
2021/03/06 06:26:30;;;;;;;25.27;8.63;;;-0.30;78.40;;;;;;5094007;28;20054;-78
2021/03/06 06:28:56;;;;;;;19.30;8.47;;;-0.40;78.00;;;;;;5092629;28;20088;-78
2021/03/06 06:31:22;;;;;;;20.57;8.30;;;-0.50;78.70;;;;;;5094097;28;20032;-78
2021/03/06 06:33:47;;;;;;;23.40;8.33;;;-0.40;78.60;;;;;;5092873;28;20035;-78
2021/03/06 06:36:32;;;;;;;21.27;8.60;;;-0.40;78.40;;;;;;5092361;28;20119;-78
2021/03/06 06:38:58;;;;;;;28.70;9.33;;;-0.40;78.30;;;;;;5092769;28;20036;-78
2021/03/06 06:41:23;;;;;;;26.73;9.77;;;-0.40;78.10;;;;;;5092636;28;20024;-78
2021/03/06 06:43:49;;;;;;;22.77;10.00;;;-0.30;78.20;;;;;;5092277;28;20036;-78
2021/03/06 06:46:30;;;;;;;27.57;10.20;;;-0.30;78.50;;;;;;5094298;28;20059;-78
2021/03/06 06:48:59;;;;;;;17.85;8.82;;;-0.20;78.40;;;;;;5095040;28;20035;-77
2021/03/06 06:51:24;;;;;;;32.20;9.63;;;-0.20;78.10;;;;;;5097679;28;20473;-78
2021/03/06 06:53:50;;;;;;;22.03;11.13;;;-0.20;78.20;;;;;;5097898;28;20054;-77
2021/03/06 06:56:25;;;;;;;23.47;10.33;;;-0.30;78.80;;;;;;5097631;28;20028;-77
2021/03/06 06:58:51;;;;;;;21.57;10.27;;;-0.10;78.70;;;;;;5097952;28;20428;-77
2021/03/06 07:01:39;;;;;;;21.83;9.90;;;-0.10;78.60;;;;;;5097696;28;20020;-77
2021/03/06 07:04:06;;;;;;;29.07;10.67;;;0.00;78.60;;;;;;5079555;28;20422;-78
2021/03/06 07:06:32;;;;;;;26.37;9.67;;;0.00;78.40;;;;;;5095591;28;20020;-78
2021/03/06 07:09:07;;;;;;;22.33;9.87;;;0.00;79.10;;;;;;5096532;28;20115;-79
2021/03/06 07:11:33;;;;;;;17.10;9.30;;;0.00;79.40;;;;;;5097744;28;20020;-77
2021/03/06 07:13:59;;;;;;;17.10;9.43;;;0.10;79.90;;;;;;5097640;28;20043;-77
2021/03/06 07:16:26;;;;;;;21.17;8.63;;;0.10;79.50;;;;;;5079479;28;20024;-78
2021/03/06 07:19:01;;;;;;;23.37;9.27;;;0.10;79.60;;;;;;5096116;28;20036;-78
2021/03/06 07:21:27;;;;;;;22.43;8.93;;;0.20;79.80;;;;;;5097410;28;20058;-78
2021/03/06 07:23:52;;;;;;;16.07;8.40;;;0.40;79.70;;;;;;5097430;28;20071;-77
2021/03/06 07:26:18;;;;;;;21.13;9.97;;;0.60;79.00;;;;;;5097054;28;20035;-78
2021/03/06 07:28:43;;;;;;;24.43;8.90;;;0.60;78.90;;;;;;5096000;28;20615;-78
2021/03/06 07:31:09;;;;;;;20.40;8.63;;;0.50;79.10;;;;;;5097197;28;20031;-78
2021/03/06 07:33:34;;;;;;;23.97;8.27;;;0.60;78.90;;;;;;5096187;28;20054;-78
2021/03/06 07:36:00;;;;;;;19.43;8.00;;;0.70;79.30;;;;;;5097114;28;20024;-77
2021/03/06 07:38:26;;;;;;;17.63;7.90;;;0.80;79.00;;;;;;5095877;28;20027;-78
2021/03/06 07:40:59;;;;;;;19.30;8.13;;;0.80;78.80;;;;;;5096946;28;20031;-78
2021/03/06 07:43:33;;;;;;;24.53;8.97;;;0.90;79.00;;;;;;5095833;28;20048;-78
2021/03/06 07:45:59;;;;;;;22.80;8.33;;;1.20;78.60;;;;;;5095520;28;20020;-77
2021/03/06 07:48:26;;;;;;;17.07;7.97;;;1.30;78.10;;;;;;5096818;28;20024;-78
2021/03/06 07:50:52;;;;;;;18.47;7.93;;;1.40;77.70;;;;;;5097847;28;20058;-77
2021/03/06 07:53:21;;;;;;;19.37;8.80;;;1.30;77.30;;;;;;5095651;28;20049;-78
2021/03/06 07:55:47;;;;;;;16.63;8.03;;;1.40;77.20;;;;;;5096786;28;20043;-78
2021/03/06 07:58:14;;;;;;;19.03;8.00;;;1.50;77.20;;;;;;5098135;28;20048;-79
2021/03/06 08:00:56;;;;;;;17.07;8.13;;;1.40;77.70;;;;;;5097957;28;20507;-79
2021/03/06 08:03:27;;;;;;;21.87;8.40;;;1.50;77.70;;;;;;5096848;28;20055;-79
2021/03/06 08:06:16;;;;;;;22.63;8.87;;;1.60;77.60;;;;;;5096539;28;20050;-79
2021/03/06 08:08:41;;;;;;;18.33;8.20;;;1.60;77.70;;;;;;5097390;28;20093;-80
2021/03/06 08:11:20;;;;;;;17.83;8.20;;;1.60;77.70;;;;;;5095502;28;20032;-81
2021/03/06 08:13:48;;;;;;;15.13;7.93;;;1.80;77.50;;;;;;5096631;28;20032;-79
2021/03/06 08:18:50;;;;;;;12.43;6.77;;;2.10;76.50;;;;;;5096299;28;20085;-80
2021/03/06 08:21:28;;;;;;;13.93;7.00;;;2.10;76.00;;;;;;5093282;28;20059;-79
2021/03/06 08:24:15;;;;;;;12.00;7.70;;;2.30;75.30;;;;;;5090898;28;20042;-79
2021/03/06 08:26:44;;;;;;;14.00;6.80;;;2.60;74.80;;;;;;5090131;28;20386;-78
2021/03/06 08:29:22;;;;;;;19.43;7.43;;;2.60;74.10;;;;;;5095429;28;20020;-82
2021/03/06 08:32:06;;;;;;;18.33;7.10;;;2.70;73.90;;;;;;5090852;28;20028;-82
2021/03/06 08:34:45;;;;;;;14.10;7.70;;;2.80;73.00;;;;;;5096039;28;20020;-81
2021/03/06 08:39:43;;;;;;;19.73;6.87;;;3.10;71.70;;;;;;5095447;28;20028;-82
2021/03/06 08:42:09;;;;;;;12.00;6.57;;;3.20;72.00;;;;;;5094386;28;20389;-82
2021/03/06 08:44:34;;;;;;;22.87;7.20;;;3.20;70.90;;;;;;5095211;28;20043;-82
2021/03/06 08:47:00;;;;;;;24.07;7.33;;;3.20;71.10;;;;;;5095494;28;20457;-82
2021/03/06 08:49:26;;;;;;;16.07;6.80;;;3.30;70.10;;;;;;5095272;28;20047;-82
2021/03/06 08:51:52;;;;;;;13.53;7.00;;;3.50;70.50;;;;;;5073727;28;20020;-83
2021/03/06 08:54:18;;;;;;;14.97;6.63;;;3.50;70.10;;;;;;5093960;28;20469;-83
2021/03/06 08:56:44;;;;;;;19.90;7.10;;;3.70;70.00;;;;;;5094773;28;20035;-83
2021/03/06 08:59:09;;;;;;;16.83;5.63;;;3.60;68.70;;;;;;5095303;28;20479;-83
2021/03/06 09:01:35;;;;;;;12.53;5.40;;;3.80;67.90;;;;;;5095507;28;20035;-83
2021/03/06 09:04:01;;;;;;;12.77;6.03;;;3.90;67.60;;;;;;5095169;28;20115;-83
2021/03/06 09:06:39;;;;;;;27.43;6.43;;;3.90;67.60;;;;;;5095242;28;20035;-83
2021/03/06 09:09:08;;;;;;;13.70;5.47;;;4.00;65.70;;;;;;5094226;28;20077;-83
2021/03/06 09:11:33;;;;;;;16.37;5.30;;;4.10;64.50;;;;;;5094113;28;20396;-83
2021/03/06 09:13:59;;;;;;;18.73;5.33;;;4.20;64.80;;;;;;5094703;28;20032;-84
2021/03/06 09:16:25;;;;;;;17.50;5.37;;;4.40;64.00;;;;;;5077029;28;20380;-85
2021/03/06 09:18:50;;;;;;;11.30;4.90;;;4.50;62.90;;;;;;5094897;28;20032;-84
2021/03/06 09:21:20;;;;;;;15.47;5.53;;;4.60;62.20;;;;;;5073376;28;20031;-84
2021/03/06 09:23:46;;;;;;;14.73;5.03;;;4.50;61.70;;;;;;5093974;28;20426;-83
2021/03/06 09:26:19;;;;;;;13.20;5.43;;;4.70;62.70;;;;;;5076607;28;20047;-85
2021/03/06 09:28:45;;;;;;;10.90;5.23;;;4.70;60.90;;;;;;5100359;28;20036;-85
2021/03/06 09:31:13;;;;;;;20.20;5.33;;;4.80;61.20;;;;;;5100685;28;20050;-85
2021/03/06 09:33:38;;;;;;;11.23;4.77;;;4.80;60.80;;;;;;5091037;28;20526;-83
2021/03/06 09:36:14;;;;;;;15.47;4.87;;;4.80;61.60;;;;;;5094975;28;20020;-85
2021/03/06 09:38:52;;;;;;;15.03;5.70;;;4.90;61.90;;;;;;5073035;28;20027;-85
2021/03/06 09:41:19;;;;;;;17.50;5.80;;;5.00;61.90;;;;;;5075351;28;20020;-85
2021/03/06 09:43:52;;;;;;;10.00;5.07;;;4.90;60.50;;;;;;5060350;28;20409;-84
2021/03/06 09:46:19;;;;;;;12.40;5.27;;;4.90;59.70;;;;;;5073764;28;20020;-85
2021/03/06 09:49:09;;;;;;;16.07;5.20;;;4.80;59.80;;;;;;5074804;28;20090;-84
2021/03/06 09:51:44;;;;;;;14.50;4.93;;;4.80;60.10;;;;;;5110093;28;20032;-86
2021/03/06 09:54:10;;;;;;;16.20;5.50;;;5.00;60.40;;;;;;5108944;28;20086;-86
2021/03/06 09:56:54;;;;;;;11.93;5.07;;;5.20;59.70;;;;;;5093270;28;20457;-86
2021/03/06 09:59:20;;;;;;;12.27;4.80;;;5.30;58.80;;;;;;5090089;28;20026;-86
2021/03/06 10:01:46;;;;;;;9.37;5.00;;;5.30;58.90;;;;;;5090862;28;20100;-85
2021/03/06 10:04:18;;;;;;;11.80;4.43;;;5.40;57.80;;;;;;5092604;28;20092;-85
2021/03/06 10:06:45;;;;;;;7.47;4.27;;;5.50;57.60;;;;;;5076311;28;20089;-85
2021/03/06 10:09:12;;;;;;;9.37;4.50;;;5.50;55.90;;;;;;5076130;28;20039;-85
2021/03/06 10:11:39;;;;;;;13.70;4.40;;;5.60;56.00;;;;;;5092742;28;20020;-85
2021/03/06 10:14:08;;;;;;;12.77;3.67;;;5.70;56.90;;;;;;5092894;28;20107;-86
2021/03/06 10:16:47;;;;;;;10.63;3.50;;;5.90;55.00;;;;;;5076062;28;20066;-86
2021/03/06 10:19:13;;;;;;;10.23;3.73;;;6.00;53.10;;;;;;5094535;28;20028;-85
2021/03/06 10:21:39;;;;;;;7.27;3.67;;;6.10;54.00;;;;;;5094143;28;20362;-86
2021/03/06 10:24:06;;;;;;;7.40;4.03;;;5.90;53.00;;;;;;5075725;28;20028;-84
2021/03/06 10:26:32;;;;;;;8.83;3.70;;;5.90;53.80;;;;;;5093745;28;20024;-84
2021/03/06 10:29:00;;;;;;;6.43;3.03;;;6.00;55.30;;;;;;5093437;28;20039;-85
2021/03/06 10:31:33;;;;;;;8.30;3.07;;;6.00;51.60;;;;;;5077720;28;20024;-85
2021/03/06 10:34:13;;;;;;;7.77;3.10;;;6.10;52.90;;;;;;5077438;28;20024;-85
2021/03/06 10:36:39;;;;;;;6.73;2.57;;;6.20;52.10;;;;;;5093004;28;20114;-85
2021/03/06 10:39:31;;;;;;;7.10;2.50;;;6.20;51.10;;;;;;5094502;28;20441;-85
2021/03/06 10:41:57;;;;;;;8.67;3.33;;;6.30;49.90;;;;;;5092723;28;20082;-84
2021/03/06 10:44:23;;;;;;;6.93;2.50;;;6.50;50.20;;;;;;5097311;28;20465;-85
2021/03/06 10:46:59;;;;;;;3.83;2.03;;;6.60;49.90;;;;;;5060376;28;20023;-85
2021/03/06 10:49:41;;;;;;;3.57;2.13;;;6.80;48.90;;;;;;5094627;28;20115;-85
2021/03/06 10:52:11;;;;;;;9.00;2.43;;;6.90;47.70;;;;;;5094234;28;20032;-85
2021/03/06 10:54:47;;;;;;;5.13;1.87;;;7.00;48.50;;;;;;5094199;28;20111;-85
2021/03/06 10:57:13;;;;;;;3.47;1.90;;;7.10;46.90;;;;;;5076349;28;20021;-86
2021/03/06 10:59:38;;;;;;;9.13;2.23;;;7.20;45.30;;;;;;5092587;28;20473;-85
2021/03/06 11:02:04;;;;;;;5.63;2.00;;;7.30;47.90;;;;;;5094002;28;20024;-86
2021/03/06 11:04:31;;;;;;;4.60;2.20;;;7.40;45.50;;;;;;5093156;28;20122;-86
2021/03/06 11:06:57;;;;;;;7.37;2.20;;;7.40;46.00;;;;;;5092904;28;20377;-86
2021/03/06 11:09:27;;;;;;;7.27;2.20;;;7.60;46.00;;;;;;5094017;28;20020;-85
2021/03/06 11:11:52;;;;;;;6.33;2.10;;;7.70;45.20;;;;;;5093990;28;20020;-87
2021/03/06 11:14:27;;;;;;;3.33;1.90;;;7.70;44.40;;;;;;5088589;28;20109;-84
2021/03/06 11:16:53;;;;;;;4.23;2.17;;;7.70;44.90;;;;;;5093291;28;20088;-88
2021/03/06 11:19:19;;;;;;;5.47;1.90;;;7.80;45.00;;;;;;5092754;28;20068;-88
2021/03/06 11:21:44;;;;;;;5.33;2.57;;;7.80;45.00;;;;;;5092622;28;20028;-87
2021/03/06 11:24:10;;;;;;;4.00;2.20;;;7.70;43.70;;;;;;5092459;28;20059;-85
2021/03/06 11:26:36;;;;;;;5.97;2.13;;;7.50;43.70;;;;;;5097997;28;20034;-87
2021/03/06 11:29:03;;;;;;;8.80;2.43;;;7.50;44.40;;;;;;5091118;28;20028;-86
2021/03/06 11:31:29;;;;;;;5.97;2.50;;;7.40;43.80;;;;;;5092944;28;20016;-85
2021/03/06 11:33:54;;;;;;;7.63;2.80;;;7.60;45.00;;;;;;5119738;28;20092;-86
2021/03/06 11:36:22;;;;;;;4.70;2.30;;;7.70;45.00;;;;;;5118185;28;20032;-86
2021/03/06 11:38:48;;;;;;;5.60;2.93;;;7.90;46.00;;;;;;5118018;28;20030;-85
2021/03/06 11:41:13;;;;;;;6.93;2.60;;;8.10;44.50;;;;;;5117712;27;20027;-85
2021/03/06 11:43:39;;;;;;;4.13;2.27;;;8.10;45.00;;;;;;5117375;28;20119;-85
2021/03/06 11:46:05;;;;;;;13.20;2.33;;;8.20;43.10;;;;;;5117933;28;20032;-86
2021/03/06 11:48:30;;;;;;;5.83;2.30;;;8.20;44.10;;;;;;5117551;28;20051;-86
2021/03/06 11:50:56;;;;;;;8.83;2.40;;;8.20;43.00;;;;;;5117797;28;20385;-86
2021/03/06 11:53:21;;;;;;;5.13;2.30;;;8.30;44.00;;;;;;5117954;28;20023;-85
2021/03/06 11:55:47;;;;;;;12.37;2.90;;;8.30;43.70;;;;;;5117391;28;20085;-86
2021/03/06 11:58:13;;;;;;;4.43;2.50;;;8.30;43.30;;;;;;5117213;28;20020;-86
2021/03/06 12:00:38;;;;;;;3.63;2.40;;;8.40;42.80;;;;;;5118030;28;20024;-86
2021/03/06 12:03:04;;;;;;;6.60;2.20;;;8.50;42.80;;;;;;5116299;28;20028;-86
2021/03/06 12:05:30;;;;;;;8.43;2.90;;;8.50;42.80;;;;;;5102051;28;20046;-84
2021/03/06 12:07:56;;;;;;;6.68;2.00;;;8.60;42.40;;;;;;5087660;28;20469;-85
2021/03/06 12:10:28;;;;;;;6.93;2.45;;;8.60;42.30;;;;;;5094709;28;20059;-85
2021/03/06 12:12:54;;;;;;;6.05;2.67;;;8.70;42.00;;;;;;5078073;28;20057;-85
2021/03/06 12:15:20;;;;;;;6.57;2.47;;;8.50;42.10;;;;;;5084605;28;20059;-85
2021/03/06 12:17:46;;;;;;;3.92;2.17;;;8.60;42.90;;;;;;5094489;28;20052;-85
2021/03/06 12:20:13;;;;;;;16.92;3.33;;;8.70;42.90;;;;;;5092512;28;20024;-85
2021/03/06 12:22:38;;;;;;;9.50;2.90;;;8.70;42.20;;;;;;5098100;28;20026;-85
2021/03/06 12:25:05;;;;;;;7.80;2.50;;;8.60;43.20;;;;;;5098915;28;20044;-86
2021/03/06 12:27:31;;;;;;;8.40;2.53;;;8.70;42.70;;;;;;5097105;28;20024;-86
2021/03/06 12:29:56;;;;;;;7.30;1.90;;;8.80;43.30;;;;;;5098081;28;20392;-86
2021/03/06 12:32:22;;;;;;;4.65;2.10;;;8.80;41.60;;;;;;5098780;28;20032;-86
2021/03/06 12:34:48;;;;;;;7.80;2.63;;;8.90;40.40;;;;;;5099548;28;20518;-86
2021/03/06 12:37:13;;;;;;;9.40;2.60;;;9.00;41.60;;;;;;5097951;28;20198;-86
2021/03/06 12:39:39;;;;;;;11.45;2.85;;;9.00;41.20;;;;;;5100434;28;20028;-86
2021/03/06 12:42:05;;;;;;;10.63;2.60;;;9.10;42.60;;;;;;5099680;28;20496;-86
2021/03/06 12:44:30;;;;;;;5.65;2.30;;;9.20;42.40;;;;;;5096725;28;20028;-86
2021/03/06 12:46:56;;;;;;;5.10;2.55;;;9.20;40.90;;;;;;5096281;28;20487;-87
2021/03/06 12:49:22;;;;;;;8.50;2.83;;;9.10;41.20;;;;;;5107845;28;20059;-86
2021/03/06 12:51:47;;;;;;;7.20;3.05;;;8.70;40.10;;;;;;5110673;28;20039;-86
2021/03/06 12:54:13;;;;;;;6.03;2.50;;;8.70;41.60;;;;;;5095751;28;20066;-86